Strinestown, Pennsylvania
Current Conditions -  °F | °C
As of 3:56 PM on Friday 21 Nov 2014 (Local Time) from KMDT Reporting Station
Few Clouds Few Clouds  
Wind Chill: 25°   Ceiling: Unl
Heat Index: 33°   Visibility: 10mi
Dew Point: 11°   Wind: 10mph
Humidity: 40%   Direction: 300°WNW
Pressure: 30.45"   Gusts: NA
Location:  40.0596°N, 76.7235°W
Report Text: KMDT 212056Z 30009KT 10SM FEW060 01/M12 A3045 RMK AO2 SLP315 T00061117 53015
Loading
Personal Weather Stations






























Interactive Weather Map New forecast layout! Learn more

10-Day Weather Forecast

Advertisements
Track Severe Weather on mobile